createdAt,value
2023-04-22T00:00:29.050Z,100225.72
2023-04-22T00:03:32.971Z,100217.47
2023-04-22T00:06:35.870Z,100217.69
2023-04-22T00:09:38.635Z,100219.53
2023-04-22T00:12:41.632Z,100212.63
2023-04-22T00:15:44.531Z,100212.66
2023-04-22T00:18:47.007Z,100209.19
2023-04-22T00:21:49.537Z,100210.09
2023-04-22T00:24:52.015Z,100214.28
2023-04-22T00:27:54.715Z,100211.72
2023-04-22T00:30:58.783Z,100212.63
2023-04-22T00:34:01.288Z,100216.09
2023-04-22T00:37:03.849Z,100218.81
2023-04-22T00:40:07.102Z,100213.75
2023-04-22T00:43:09.800Z,100201.38
2023-04-22T00:46:12.357Z,100204.28
2023-04-22T00:49:14.863Z,100205.09
2023-04-22T00:52:18.636Z,100201.59
2023-04-22T00:55:21.401Z,100201.56
2023-04-22T00:58:26.076Z,100200.78
2023-04-22T01:01:28.625Z,100207.88
2023-04-22T01:04:31.464Z,100207.03
2023-04-22T01:07:34.290Z,100217.53
2023-04-22T01:10:36.838Z,100227.69
2023-04-22T01:13:40.826Z,100216.97
2023-04-22T01:16:43.847Z,100221.28
2023-04-22T01:19:47.461Z,100216.22
2023-04-22T01:22:49.872Z,100223.09
2023-04-22T01:25:52.355Z,100221.28
2023-04-22T01:28:54.795Z,100226.19
2023-04-22T01:31:57.343Z,100227.13
2023-04-22T01:34:59.858Z,100228.81
2023-04-22T01:38:03.980Z,100233.06
2023-04-22T01:41:06.737Z,100227.53
2023-04-22T01:44:09.365Z,100230.00
2023-04-22T01:47:13.441Z,100225.25
2023-04-22T01:50:16.228Z,100228.09
2023-04-22T01:53:18.657Z,100224.53
2023-04-22T01:56:21.528Z,100224.63
2023-04-22T01:59:24.314Z,100222.25
2023-04-22T02:02:26.967Z,100222.75
2023-04-22T02:05:29.525Z,100223.69
2023-04-22T02:08:32.390Z,100215.00
2023-04-22T02:11:34.809Z,100226.31
2023-04-22T02:14:37.305Z,100220.44
2023-04-22T02:17:42.397Z,100226.41
2023-04-22T02:20:44.970Z,100220.28
2023-04-22T02:23:47.466Z,100221.19
2023-04-22T02:26:50.092Z,100220.16
2023-04-22T02:29:52.862Z,100219.94
2023-04-22T02:32:56.407Z,100219.88
2023-04-22T02:35:59.111Z,100221.28
2023-04-22T02:39:06.126Z,100222.03
2023-04-22T02:42:11.123Z,100215.88
2023-04-22T02:45:14.152Z,100225.44
2023-04-22T02:48:18.419Z,100221.25
2023-04-22T02:51:21.898Z,100214.69
2023-04-22T02:54:24.477Z,100211.19
2023-04-22T02:57:27.265Z,100217.97
2023-04-22T03:00:29.916Z,100220.88
2023-04-22T03:03:32.575Z,100225.25
2023-04-22T03:06:35.671Z,100222.66
2023-04-22T03:09:38.329Z,100222.22
2023-04-22T03:12:41.491Z,100222.06
2023-04-22T03:15:43.927Z,100230.84
2023-04-22T03:18:46.460Z,100228.97
2023-04-22T03:21:49.015Z,100226.09
2023-04-22T03:24:51.817Z,100224.38
2023-04-22T03:27:54.597Z,100228.94
2023-04-22T03:30:57.188Z,100229.88
2023-04-22T03:34:00.067Z,100232.66
2023-04-22T03:37:04.925Z,100234.50
2023-04-22T03:40:08.062Z,100231.25
2023-04-22T03:43:10.570Z,100240.81
2023-04-22T03:46:13.729Z,100240.81
2023-04-22T03:49:21.086Z,100230.38
2023-04-22T03:52:24.281Z,100241.34
2023-04-22T03:55:33.532Z,100249.22
2023-04-22T03:58:36.963Z,100240.56
2023-04-22T04:01:42.094Z,100242.97
2023-04-22T04:04:46.584Z,100242.97
2023-04-22T04:07:49.936Z,100246.63
2023-04-22T04:10:52.437Z,100247.63
2023-04-22T04:13:54.936Z,100241.81
2023-04-22T04:17:03.752Z,100251.16
2023-04-22T04:20:09.670Z,100247.88
2023-04-22T04:23:12.654Z,100253.31
2023-04-22T04:26:15.206Z,100256.69
2023-04-22T04:29:21.472Z,100262.81
2023-04-22T04:32:35.883Z,100257.69
2023-04-22T04:35:43.395Z,100266.47
2023-04-22T04:38:48.105Z,100273.69
2023-04-22T04:41:55.155Z,100271.75
2023-04-22T04:44:58.992Z,100279.59
2023-04-22T04:48:03.236Z,100270.38
2023-04-22T04:51:11.712Z,100270.13
2023-04-22T04:54:24.185Z,100277.28
2023-04-22T04:57:27.142Z,100279.00
2023-04-22T05:00:30.922Z,100272.28
2023-04-22T05:03:33.920Z,100276.84
2023-04-22T05:06:37.066Z,100275.53
2023-04-22T05:09:40.967Z,100286.25
2023-04-22T05:12:46.362Z,100282.25
2023-04-22T05:15:54.689Z,100286.78
2023-04-22T05:18:58.705Z,100286.97
2023-04-22T05:22:01.377Z,100292.34
2023-04-22T05:25:05.356Z,100284.47
2023-04-22T05:28:08.436Z,100285.44
2023-04-22T05:31:19.306Z,100282.09
2023-04-22T05:34:22.782Z,100288.47
2023-04-22T05:37:25.637Z,100290.50
2023-04-22T05:40:28.578Z,100281.75
2023-04-22T05:43:31.334Z,100285.34
2023-04-22T05:46:41.790Z,100287.59
2023-04-22T05:49:44.545Z,100285.28
2023-04-22T05:52:53.094Z,100292.63
2023-04-22T05:55:56.463Z,100294.75
2023-04-22T05:58:59.974Z,100285.28
2023-04-22T06:02:02.881Z,100294.13
2023-04-22T06:05:06.570Z,100290.88
2023-04-22T06:08:09.359Z,100294.34
2023-04-22T06:11:11.852Z,100291.88
2023-04-22T06:14:14.609Z,100290.47
2023-04-22T06:17:18.860Z,100294.44
2023-04-22T06:20:21.805Z,100300.88
2023-04-22T06:23:24.258Z,100305.31
2023-04-22T06:26:26.949Z,100308.72
2023-04-22T06:29:29.448Z,100307.00
2023-04-22T06:32:31.957Z,100301.91
2023-04-22T06:35:34.401Z,100308.31
2023-04-22T06:38:36.960Z,100297.06
2023-04-22T06:42:18.268Z,100291.06
2023-04-22T06:45:40.932Z,100301.66
2023-04-22T06:48:57.566Z,100291.28
2023-04-22T06:52:23.526Z,100299.31
2023-04-22T06:55:28.501Z,100293.25
2023-04-22T06:58:31.121Z,100293.28
2023-04-22T07:01:33.960Z,100295.09
2023-04-22T07:04:36.759Z,100296.91
2023-04-22T07:07:39.674Z,100298.69
2023-04-22T07:10:43.702Z,100296.91
2023-04-22T07:14:09.378Z,100299.53
2023-04-22T07:17:12.045Z,100297.72
2023-04-22T07:20:14.479Z,100291.56
2023-04-22T07:23:17.165Z,100292.34
2023-04-22T07:26:19.607Z,100299.38
2023-04-22T07:29:22.431Z,100294.78
2023-04-22T07:32:24.735Z,100293.75
2023-04-22T07:35:28.675Z,100295.44
2023-04-22T07:38:31.106Z,100291.69
2023-04-22T07:41:33.558Z,100297.72
2023-04-22T07:44:37.664Z,100300.34
2023-04-22T07:47:42.204Z,100303.81
2023-04-22T07:50:44.525Z,100299.28
2023-04-22T07:53:46.857Z,100301.03
2023-04-22T07:56:49.379Z,100301.84
2023-04-22T07:59:51.914Z,100292.78
2023-04-22T08:02:54.496Z,100298.63
2023-04-22T08:05:58.402Z,100294.03
2023-04-22T08:09:01.053Z,100295.41
2023-04-22T08:12:03.628Z,100298.63
2023-04-22T08:15:06.881Z,100302.19
2023-04-22T08:18:09.527Z,100291.06
2023-04-22T08:21:12.516Z,100296.34
2023-04-22T08:24:15.217Z,100296.47
2023-04-22T08:27:19.367Z,100307.19
2023-04-22T08:30:21.938Z,100300.75
2023-04-22T08:33:26.519Z,100303.59
2023-04-22T08:36:30.936Z,100299.41
2023-04-22T08:39:33.464Z,100297.84
2023-04-22T08:42:35.959Z,100295.31
2023-04-22T08:45:39.640Z,100293.91
2023-04-22T08:48:42.250Z,100294.16
2023-04-22T08:51:45.086Z,100298.47
2023-04-22T08:54:47.490Z,100286.59
2023-04-22T08:57:50.395Z,100287.69
2023-04-22T09:00:53.157Z,100296.91
2023-04-22T09:03:55.902Z,100295.97
2023-04-22T09:07:01.790Z,100291.31
2023-04-22T09:10:04.489Z,100286.78
2023-04-22T09:13:07.256Z,100295.53
2023-04-22T09:16:10.168Z,100288.34
2023-04-22T09:19:13.263Z,100294.13
2023-04-22T09:22:16.384Z,100292.22
2023-04-22T09:25:23.263Z,100288.56
2023-04-22T09:28:26.232Z,100290.09
2023-04-22T09:31:28.705Z,100291.31
2023-04-22T09:34:31.234Z,100286.03
2023-04-22T09:37:48.561Z,100281.47
2023-04-22T09:40:51.484Z,100280.50
2023-04-22T09:43:56.251Z,100273.63
2023-04-22T09:46:59.231Z,100275.88
2023-04-22T09:50:04.849Z,100263.78
2023-04-22T09:53:08.419Z,100273.72
2023-04-22T09:56:11.534Z,100257.03
2023-04-22T09:59:28.333Z,100262.38
2023-04-22T10:02:30.897Z,100259.56
2023-04-22T10:05:37.824Z,100256.69
2023-04-22T10:08:40.328Z,100254.44
2023-04-22T10:11:42.809Z,100246.09
2023-04-22T10:14:45.381Z,100243.69
2023-04-22T10:17:47.862Z,100245.16
2023-04-22T10:20:50.970Z,100237.13
2023-04-22T10:23:53.537Z,100234.56
2023-04-22T10:27:01.499Z,100228.38
2023-04-22T10:30:04.120Z,100228.00
2023-04-22T10:33:23.994Z,100236.78
2023-04-22T10:36:26.388Z,100232.41
2023-04-22T10:39:28.909Z,100235.19
2023-04-22T10:42:31.357Z,100231.78
2023-04-22T10:45:33.927Z,100228.16
2023-04-22T10:48:49.718Z,100229.25
2023-04-22T10:51:59.886Z,100229.16
2023-04-22T10:55:02.554Z,100227.28
2023-04-22T10:58:18.918Z,100227.53
2023-04-22T11:01:21.372Z,100226.22
2023-04-22T11:04:24.388Z,100227.72
2023-04-22T11:07:27.253Z,100226.19
2023-04-22T11:10:43.776Z,100229.38
2023-04-22T11:13:52.866Z,100227.78
2023-04-22T11:16:55.362Z,100222.47
2023-04-22T11:19:58.310Z,100225.09
2023-04-22T11:23:00.722Z,100222.34
2023-04-22T11:26:06.603Z,100215.38
2023-04-22T11:29:09.457Z,100216.19
2023-04-22T11:32:12.070Z,100211.38
2023-04-22T11:35:21.401Z,100218.41
2023-04-22T11:38:23.734Z,100215.41
2023-04-22T11:41:27.833Z,100209.19
2023-04-22T11:44:30.271Z,100210.84
2023-04-22T11:47:32.884Z,100213.16
2023-04-22T11:50:39.870Z,100207.88
2023-04-22T11:53:50.513Z,100205.50
2023-04-22T11:56:53.034Z,100208.00
2023-04-22T11:59:59.373Z,100206.78
2023-04-22T12:03:08.195Z,100208.06
2023-04-22T12:06:11.388Z,100206.88
2023-04-22T12:09:14.094Z,100198.97
2023-04-22T12:12:16.531Z,100201.03
2023-04-22T12:15:19.016Z,100205.03
2023-04-22T12:18:30.885Z,100202.09
2023-04-22T12:21:33.556Z,100197.94
2023-04-22T12:24:36.274Z,100190.00
2023-04-22T12:27:38.761Z,100194.69
2023-04-22T12:30:41.374Z,100196.34
2023-04-22T12:33:43.673Z,100197.81
2023-04-22T12:36:46.043Z,100201.22
2023-04-22T12:39:48.917Z,100196.66
2023-04-22T12:42:51.758Z,100187.78
2023-04-22T12:45:54.505Z,100188.19
2023-04-22T12:48:57.063Z,100176.84
2023-04-22T12:51:59.465Z,100174.16
2023-04-22T12:55:02.036Z,100165.94
2023-04-22T12:58:04.464Z,100169.03
2023-04-22T13:01:06.692Z,100169.38
2023-04-22T13:04:09.266Z,100166.13
2023-04-22T13:07:11.864Z,100158.03
2023-04-22T13:10:15.356Z,100160.00
2023-04-22T13:13:19.369Z,100160.22
2023-04-22T13:16:22.421Z,100157.31
2023-04-22T13:19:27.073Z,100156.25
2023-04-22T13:22:29.519Z,100149.72
2023-04-22T13:25:32.174Z,100146.88
2023-04-22T13:28:34.599Z,100157.59
2023-04-22T13:31:38.620Z,100152.69
2023-04-22T13:34:41.324Z,100149.84
2023-04-22T13:37:43.876Z,100136.44
2023-04-22T13:40:46.692Z,100136.06
2023-04-22T13:43:54.272Z,100141.16
2023-04-22T13:46:56.841Z,100138.44
2023-04-22T13:50:00.823Z,100140.63
2023-04-22T13:53:04.325Z,100144.75
2023-04-22T13:56:06.971Z,100140.06
2023-04-22T13:59:09.582Z,100131.91
2023-04-22T14:02:13.027Z,100137.84
2023-04-22T14:05:15.591Z,100137.28
2023-04-22T14:08:18.108Z,100137.34
2023-04-22T14:11:20.753Z,100139.09
2023-04-22T14:14:23.125Z,100131.97
2023-04-22T14:17:27.777Z,100134.84
2023-04-22T14:20:31.456Z,100130.59
2023-04-22T14:23:34.138Z,100135.53
2023-04-22T14:26:36.800Z,100124.56
2023-04-22T14:29:39.839Z,100133.50
2023-04-22T14:32:42.499Z,100135.19
2023-04-22T14:35:44.744Z,100130.19
2023-04-22T14:38:47.430Z,100122.50
2023-04-22T14:41:49.853Z,100126.63
2023-04-22T14:44:52.741Z,100122.31
2023-04-22T14:47:55.926Z,100130.50
2023-04-22T14:50:59.942Z,100121.81
2023-04-22T14:54:02.521Z,100116.16
2023-04-22T14:57:04.957Z,100121.38
2023-04-22T15:00:08.076Z,100120.81
2023-04-22T15:03:10.577Z,100121.38
2023-04-22T15:06:13.580Z,100118.75
2023-04-22T15:09:16.291Z,100124.47
2023-04-22T15:12:18.946Z,100120.06
2023-04-22T15:15:21.389Z,100128.63
2023-04-22T15:18:24.949Z,100122.91
2023-04-22T15:21:27.593Z,100120.03
2023-04-22T15:24:30.313Z,100115.75
2023-04-22T15:27:33.091Z,100118.59
2023-04-22T15:30:35.681Z,100118.19
2023-04-22T15:33:38.875Z,100122.50
2023-04-22T15:36:41.900Z,100114.56
2023-04-22T15:39:44.526Z,100114.94
2023-04-22T15:42:47.120Z,100117.22
2023-04-22T15:45:49.727Z,100112.97
2023-04-22T15:48:52.441Z,100121.88
2023-04-22T15:51:54.981Z,100118.91
2023-04-22T15:54:57.594Z,100118.81
2023-04-22T15:58:00.048Z,100128.09
2023-04-22T16:01:15.336Z,100118.22
2023-04-22T16:04:21.803Z,100110.41
2023-04-22T16:07:24.522Z,100113.53
2023-04-22T16:10:27.980Z,100114.22
2023-04-22T16:13:30.512Z,100111.97
2023-04-22T16:16:32.846Z,100117.00
2023-04-22T16:19:36.014Z,100112.16
2023-04-22T16:22:38.528Z,100114.09
2023-04-22T16:25:41.360Z,100112.44
2023-04-22T16:28:43.785Z,100106.56
2023-04-22T16:31:46.057Z,100100.66
2023-04-22T16:34:48.532Z,100102.84
2023-04-22T16:37:51.024Z,100102.03
2023-04-22T16:40:54.439Z,100106.97
2023-04-22T16:43:57.567Z,100105.41
2023-04-22T16:47:00.088Z,100105.41
2023-04-22T16:50:02.816Z,100100.19
2023-04-22T16:53:05.500Z,100105.69
2023-04-22T16:56:07.880Z,100102.09
2023-04-22T16:59:10.401Z,100099.50
2023-04-22T17:02:12.878Z,100099.69
2023-04-22T17:05:15.473Z,100100.59
2023-04-22T17:08:18.027Z,100101.56
2023-04-22T17:11:20.730Z,100105.25
2023-04-22T17:14:23.078Z,100102.66
2023-04-22T17:17:25.707Z,100095.69
2023-04-22T17:20:28.449Z,100093.16
2023-04-22T17:23:30.986Z,100098.53
2023-04-22T17:26:33.766Z,100097.75
2023-04-22T17:29:36.250Z,100094.25
2023-04-22T17:32:38.937Z,100097.94
2023-04-22T17:35:41.619Z,100103.31
2023-04-22T17:38:44.111Z,100102.41
2023-04-22T17:41:47.507Z,100101.59
2023-04-22T17:44:49.982Z,100102.63
2023-04-22T17:47:52.687Z,100102.69
2023-04-22T17:50:55.435Z,100108.06
2023-04-22T17:53:57.952Z,100113.44
2023-04-22T17:57:00.505Z,100110.88
2023-04-22T18:00:03.747Z,100115.28
2023-04-22T18:03:09.748Z,100125.91
2023-04-22T18:06:12.309Z,100129.50
2023-04-22T18:09:14.873Z,100133.94
2023-04-22T18:12:17.800Z,100141.06
2023-04-22T18:15:20.855Z,100146.34
2023-04-22T18:18:23.641Z,100140.22
2023-04-22T18:21:26.006Z,100149.03
2023-04-22T18:24:28.507Z,100151.69
2023-04-22T18:27:31.609Z,100155.19
2023-04-22T18:30:34.101Z,100156.94
2023-04-22T18:33:36.983Z,100148.16
2023-04-22T18:36:40.639Z,100164.84
2023-04-22T18:39:43.256Z,100162.22
2023-04-22T18:42:47.795Z,100163.06
2023-04-22T18:45:51.202Z,100167.44
2023-04-22T18:48:53.851Z,100169.19
2023-04-22T18:51:56.366Z,100170.03
2023-04-22T18:54:59.148Z,100168.22
2023-04-22T18:58:01.501Z,100166.41
2023-04-22T19:01:03.978Z,100167.25
2023-04-22T19:04:08.008Z,100167.19
2023-04-22T19:07:10.644Z,100168.91
2023-04-22T19:10:13.165Z,100172.34
2023-04-22T19:13:28.715Z,100169.66
2023-04-22T19:16:32.496Z,100162.66
2023-04-22T19:19:35.003Z,100164.47
2023-04-22T19:22:37.483Z,100168.00
2023-04-22T19:25:40.303Z,100167.94
2023-04-22T19:28:47.226Z,100169.59
2023-04-22T19:31:51.031Z,100176.56
2023-04-22T19:34:53.821Z,100174.81
2023-04-22T19:37:56.232Z,100163.25
2023-04-22T19:40:58.704Z,100171.97
2023-04-22T19:44:01.696Z,100170.13
2023-04-22T19:47:04.279Z,100169.97
2023-04-22T19:50:08.007Z,100176.13
2023-04-22T19:53:10.928Z,100169.03
2023-04-22T19:56:16.253Z,100171.66
2023-04-22T19:59:18.690Z,100163.69
2023-04-22T20:02:23.104Z,100170.59
2023-04-22T20:05:26.900Z,100169.75
2023-04-22T20:08:29.417Z,100167.06
2023-04-22T20:11:32.783Z,100167.94
2023-04-22T20:14:35.432Z,100175.91
2023-04-22T20:17:39.354Z,100175.72
2023-04-22T20:20:45.726Z,100170.50
2023-04-22T20:23:48.195Z,100168.78
2023-04-22T20:26:51.268Z,100170.50
2023-04-22T20:29:53.888Z,100166.22
2023-04-22T20:32:56.464Z,100157.47
2023-04-22T20:35:59.051Z,100154.75
2023-04-22T20:39:05.463Z,100163.34
2023-04-22T20:42:09.086Z,100165.88
2023-04-22T20:45:15.807Z,100167.38
2023-04-22T20:48:18.491Z,100167.16
2023-04-22T20:51:21.011Z,100163.38
2023-04-22T20:54:29.071Z,100166.75
2023-04-22T20:57:32.003Z,100167.72
2023-04-22T21:00:34.524Z,100175.22
2023-04-22T21:03:38.092Z,100163.56
2023-04-22T21:06:41.214Z,100172.19
2023-04-22T21:09:44.034Z,100175.94
2023-04-22T21:12:46.823Z,100180.34
2023-04-22T21:15:59.163Z,100174.91
2023-04-22T21:19:02.061Z,100167.75
2023-04-22T21:22:08.606Z,100173.84
2023-04-22T21:25:11.671Z,100176.28
2023-04-22T21:28:15.086Z,100174.69
2023-04-22T21:31:17.972Z,100171.97
2023-04-22T21:34:20.555Z,100184.84
2023-04-22T21:37:23.203Z,100188.22
2023-04-22T21:40:26.194Z,100185.66
2023-04-22T21:43:29.625Z,100184.38
2023-04-22T21:46:32.010Z,100180.03
2023-04-22T21:49:34.440Z,100187.19
2023-04-22T21:52:37.531Z,100178.25
2023-04-22T21:55:40.339Z,100185.31
2023-04-22T21:58:42.791Z,100193.03
2023-04-22T22:01:45.841Z,100187.47
2023-04-22T22:04:48.310Z,100185.91
2023-04-22T22:07:53.076Z,100194.63
2023-04-22T22:10:55.735Z,100187.56
2023-04-22T22:13:58.455Z,100191.09
2023-04-22T22:17:01.639Z,100194.16
2023-04-22T22:20:11.352Z,100193.31
2023-04-22T22:23:13.921Z,100199.44
2023-04-22T22:26:16.437Z,100197.47
2023-04-22T22:29:19.053Z,100199.16
2023-04-22T22:32:21.625Z,100197.66
2023-04-22T22:35:24.197Z,100196.66
2023-04-22T22:38:26.792Z,100196.56
2023-04-22T22:41:29.581Z,100206.84
2023-04-22T22:44:32.093Z,100201.63
2023-04-22T22:47:34.685Z,100198.84
2023-04-22T22:50:37.207Z,100201.38
2023-04-22T22:53:40.347Z,100210.09
2023-04-22T22:56:42.891Z,100212.50
2023-04-22T22:59:45.667Z,100208.88
2023-04-22T23:02:48.467Z,100202.75
2023-04-22T23:05:51.148Z,100207.13
2023-04-22T23:08:53.746Z,100206.13
2023-04-22T23:11:56.727Z,100207.66
2023-04-22T23:14:59.217Z,100199.94
2023-04-22T23:18:01.838Z,100207.72
2023-04-22T23:21:04.772Z,100204.03
2023-04-22T23:24:09.189Z,100213.56
2023-04-22T23:27:11.816Z,100213.47
2023-04-22T23:30:15.915Z,100207.53
2023-04-22T23:33:18.646Z,100201.84
2023-04-22T23:36:21.206Z,100210.53
2023-04-22T23:39:23.784Z,100200.16
2023-04-22T23:42:26.521Z,100209.81
2023-04-22T23:45:29.409Z,100203.72
2023-04-22T23:48:31.979Z,100201.03
2023-04-22T23:51:35.168Z,100198.28
2023-04-22T23:54:38.217Z,100206.28
2023-04-22T23:57:40.944Z,100199.28
